createdAt,value
2023-07-04T00:01:24.451Z,5.60
2023-07-04T00:03:55.813Z,4.80
2023-07-04T00:06:29.244Z,5.70
2023-07-04T00:08:57.588Z,5.60
2023-07-04T00:11:25.716Z,5.40
2023-07-04T00:13:53.926Z,6.10
2023-07-04T00:16:22.818Z,5.60
2023-07-04T00:18:51.344Z,5.20
2023-07-04T00:21:20.647Z,6.00
2023-07-04T00:23:54.584Z,5.10
2023-07-04T00:26:25.794Z,6.00
2023-07-04T00:28:55.148Z,5.60
2023-07-04T00:31:26.234Z,4.90
2023-07-04T00:33:55.160Z,5.20
2023-07-04T00:36:23.649Z,5.20
2023-07-04T00:38:59.157Z,5.40
2023-07-04T00:41:30.099Z,5.10
2023-07-04T00:44:15.411Z,5.60
2023-07-04T00:46:57.933Z,5.30
2023-07-04T00:49:39.045Z,5.50
2023-07-04T00:52:14.246Z,5.50
2023-07-04T00:54:53.987Z,6.10
2023-07-04T00:57:28.320Z,5.10
2023-07-04T00:59:59.529Z,5.50
2023-07-04T01:02:34.338Z,5.40
2023-07-04T01:05:06.646Z,5.10
2023-07-04T01:07:44.519Z,5.20
2023-07-04T01:10:22.318Z,5.40
2023-07-04T01:12:50.866Z,5.50
2023-07-04T01:15:19.788Z,6.30
2023-07-04T01:20:18.882Z,4.80
2023-07-04T01:22:51.695Z,5.50
2023-07-04T01:25:38.015Z,4.80
2023-07-04T01:28:08.292Z,5.10
2023-07-04T01:30:40.549Z,4.80
2023-07-04T01:33:10.121Z,5.20
2023-07-04T01:35:38.592Z,4.80
2023-07-04T01:38:07.552Z,5.20
2023-07-04T01:40:36.978Z,5.60
2023-07-04T01:43:05.784Z,5.40
2023-07-04T01:45:34.081Z,5.40
2023-07-04T01:48:02.264Z,4.80
2023-07-04T01:50:30.514Z,5.50
2023-07-04T01:52:58.664Z,5.50
2023-07-04T01:55:27.373Z,5.10
2023-07-04T01:57:55.699Z,4.90
2023-07-04T02:00:23.903Z,5.10
2023-07-04T02:02:59.193Z,4.70
2023-07-04T02:05:28.229Z,4.90
2023-07-04T02:07:56.379Z,4.80
2023-07-04T02:10:24.548Z,5.80
2023-07-04T02:12:52.743Z,5.20
2023-07-04T02:15:20.963Z,6.50
2023-07-04T02:17:49.107Z,5.20
2023-07-04T02:20:20.988Z,5.30
2023-07-04T02:22:49.076Z,5.30
2023-07-04T02:25:17.119Z,6.00
2023-07-04T02:27:45.682Z,4.70
2023-07-04T02:30:14.365Z,5.80
2023-07-04T02:32:42.500Z,5.30
2023-07-04T02:35:11.467Z,4.70
2023-07-04T02:37:41.855Z,4.90
2023-07-04T02:40:11.926Z,5.00
2023-07-04T02:42:40.341Z,5.20
2023-07-04T02:45:09.657Z,5.70
2023-07-04T02:47:39.422Z,5.90
2023-07-04T02:50:10.731Z,5.40
2023-07-04T02:52:39.270Z,5.30
2023-07-04T02:55:08.037Z,5.30
2023-07-04T02:57:36.912Z,6.00
2023-07-04T03:00:06.935Z,5.20
2023-07-04T03:02:36.267Z,5.90
2023-07-04T03:05:06.396Z,5.10
2023-07-04T03:07:34.910Z,4.80
2023-07-04T03:10:03.168Z,5.80
2023-07-04T03:17:29.082Z,4.80
2023-07-04T03:22:26.038Z,6.10
2023-07-04T03:27:22.895Z,5.50
2023-07-04T03:29:52.140Z,6.70
2023-07-04T03:32:20.482Z,6.00
2023-07-04T03:34:48.860Z,6.30
2023-07-04T03:37:17.054Z,5.80
2023-07-04T03:39:45.504Z,5.70
2023-07-04T03:42:13.944Z,6.40
2023-07-04T03:44:42.083Z,6.00
2023-07-04T03:47:10.261Z,5.60
2023-07-04T03:49:38.506Z,5.40
2023-07-04T03:52:06.982Z,5.90
2023-07-04T03:54:35.290Z,5.90
2023-07-04T03:57:04.213Z,6.20
2023-07-04T03:59:32.373Z,5.50
2023-07-04T04:02:00.608Z,7.60
2023-07-04T04:04:29.373Z,6.60
2023-07-04T04:09:28.290Z,6.60
2023-07-04T04:11:56.698Z,6.40
2023-07-04T04:14:24.922Z,5.60
2023-07-04T04:16:53.673Z,4.80
2023-07-04T04:19:22.162Z,4.90
2023-07-04T04:21:50.378Z,5.00
2023-07-04T04:24:18.563Z,7.60
2023-07-04T04:26:48.249Z,5.80
2023-07-04T04:29:18.656Z,6.90
2023-07-04T04:31:47.613Z,6.00
2023-07-04T04:34:22.952Z,5.80
2023-07-04T04:36:51.175Z,5.50
2023-07-04T04:39:19.583Z,5.60
2023-07-04T04:41:47.775Z,6.60
2023-07-04T04:44:16.095Z,5.50
2023-07-04T04:46:49.940Z,5.50
2023-07-04T04:49:18.656Z,6.00
2023-07-04T04:54:15.948Z,5.90
2023-07-04T04:56:45.354Z,4.40
2023-07-04T04:59:13.682Z,5.60
2023-07-04T05:06:38.752Z,7.40
2023-07-04T05:09:06.914Z,6.30
2023-07-04T05:11:35.357Z,4.60
2023-07-04T05:14:05.159Z,6.10
2023-07-04T05:16:33.362Z,5.70
2023-07-04T05:23:57.922Z,6.20
2023-07-04T05:28:57.829Z,6.60
2023-07-04T05:31:29.008Z,6.30
2023-07-04T05:33:57.896Z,6.30
2023-07-04T05:36:29.939Z,6.50
2023-07-04T05:39:02.472Z,6.20
2023-07-04T05:41:32.695Z,5.60
2023-07-04T05:44:03.988Z,8.10
2023-07-04T05:46:33.330Z,6.30
2023-07-04T05:49:01.889Z,6.10
2023-07-04T05:53:59.155Z,5.80
2023-07-04T05:56:29.906Z,6.10
2023-07-04T05:59:03.291Z,6.50
2023-07-04T06:01:34.023Z,6.90
2023-07-04T06:04:04.303Z,5.80
2023-07-04T06:06:39.086Z,7.00
2023-07-04T06:09:18.396Z,6.40
2023-07-04T06:11:48.819Z,5.80
2023-07-04T06:14:27.350Z,6.60
2023-07-04T06:16:58.416Z,7.10
2023-07-04T06:19:27.484Z,7.50
2023-07-04T06:21:57.186Z,6.70
2023-07-04T06:24:26.931Z,6.30
2023-07-04T06:27:00.517Z,6.40
2023-07-04T06:29:31.475Z,6.10
2023-07-04T06:31:59.983Z,6.80
2023-07-04T06:34:28.480Z,6.20
2023-07-04T06:36:57.128Z,6.60
2023-07-04T06:41:53.361Z,6.10
2023-07-04T06:44:21.696Z,5.80
2023-07-04T06:46:50.341Z,6.10
2023-07-04T06:49:18.842Z,6.20
2023-07-04T06:54:15.719Z,6.70
2023-07-04T06:59:14.100Z,5.90
2023-07-04T07:01:43.577Z,24.50
2023-07-04T07:04:13.996Z,16.90
2023-07-04T07:06:42.284Z,19.10
2023-07-04T07:09:10.665Z,6.90
2023-07-04T07:11:38.784Z,6.40
2023-07-04T07:14:07.326Z,7.20
2023-07-04T07:16:36.383Z,10.50
2023-07-04T07:19:04.873Z,6.80
2023-07-04T07:21:33.283Z,6.10
2023-07-04T07:24:03.011Z,12.80
2023-07-04T07:26:32.161Z,8.80
2023-07-04T07:29:00.302Z,6.30
2023-07-04T07:31:33.894Z,6.10
2023-07-04T07:34:05.996Z,6.00
2023-07-04T07:36:39.728Z,6.90
2023-07-04T07:39:11.140Z,6.70
2023-07-04T07:41:44.900Z,6.90
2023-07-04T07:44:15.401Z,6.10
2023-07-04T07:46:45.362Z,6.40
2023-07-04T07:49:13.647Z,5.50
2023-07-04T07:51:43.022Z,5.90
2023-07-04T07:54:12.046Z,5.70
2023-07-04T07:56:45.575Z,6.40
2023-07-04T07:59:14.299Z,5.50
2023-07-04T08:01:42.496Z,6.20
2023-07-04T08:06:45.870Z,5.30
2023-07-04T08:09:17.387Z,6.20
2023-07-04T08:11:47.180Z,6.50
2023-07-04T08:14:16.536Z,5.60
2023-07-04T08:16:51.321Z,6.00
2023-07-04T08:19:24.812Z,5.40
2023-07-04T08:21:54.955Z,6.00
2023-07-04T08:24:23.524Z,5.60
2023-07-04T08:26:55.902Z,5.70
2023-07-04T08:29:24.274Z,6.10
2023-07-04T08:31:52.666Z,5.40
2023-07-04T08:34:21.078Z,5.40
2023-07-04T08:36:49.312Z,5.50
2023-07-04T08:39:18.551Z,6.40
2023-07-04T08:42:00.282Z,6.70
2023-07-04T08:44:36.263Z,5.50
2023-07-04T08:47:05.605Z,5.10
2023-07-04T08:49:48.278Z,5.70
2023-07-04T08:52:28.166Z,6.10
2023-07-04T08:54:56.560Z,6.20
2023-07-04T08:57:46.247Z,6.40
2023-07-04T09:00:22.036Z,5.70
2023-07-04T09:03:18.534Z,6.70
2023-07-04T09:05:52.562Z,6.50
2023-07-04T09:08:53.400Z,5.60
2023-07-04T09:11:22.082Z,8.20
2023-07-04T09:13:56.667Z,6.70
2023-07-04T09:16:41.334Z,6.60
2023-07-04T09:19:18.639Z,5.60
2023-07-04T09:21:47.164Z,5.50
2023-07-04T09:24:15.672Z,5.60
2023-07-04T09:29:23.682Z,11.50
2023-07-04T09:32:02.441Z,7.90
2023-07-04T09:34:40.051Z,9.20
2023-07-04T09:37:20.321Z,5.90
2023-07-04T09:39:56.250Z,7.00
2023-07-04T09:42:45.933Z,7.00
2023-07-04T09:45:22.972Z,6.10
2023-07-04T09:47:52.831Z,6.40
2023-07-04T09:50:33.210Z,6.10
2023-07-04T09:53:05.724Z,6.00
2023-07-04T09:55:34.192Z,6.80
2023-07-04T09:58:37.417Z,5.80
2023-07-04T10:01:15.632Z,5.90
2023-07-04T10:06:31.223Z,5.50
2023-07-04T10:11:48.912Z,6.10
2023-07-04T10:14:19.342Z,5.80
2023-07-04T10:16:52.074Z,6.90
2023-07-04T10:19:23.150Z,6.80
2023-07-04T10:21:53.854Z,5.40
2023-07-04T10:24:25.840Z,6.70
2023-07-04T10:27:15.603Z,7.10
2023-07-04T10:32:18.744Z,6.20
2023-07-04T10:34:49.162Z,7.40
2023-07-04T10:37:32.402Z,6.60
2023-07-04T10:40:04.537Z,5.80
2023-07-04T10:42:37.793Z,7.40
2023-07-04T10:45:07.806Z,6.20
2023-07-04T10:47:39.575Z,7.20
2023-07-04T10:50:23.494Z,7.10
2023-07-04T10:52:52.226Z,7.10
2023-07-04T10:55:30.228Z,6.90
2023-07-04T10:58:15.420Z,7.70
2023-07-04T11:00:48.444Z,7.00
2023-07-04T11:03:34.217Z,7.10
2023-07-04T11:06:06.460Z,10.00
2023-07-04T11:08:36.997Z,16.20
2023-07-04T11:11:14.750Z,8.70
2023-07-04T11:13:53.070Z,7.30
2023-07-04T11:16:33.365Z,9.30
2023-07-04T11:19:21.091Z,8.30
2023-07-04T11:22:01.620Z,6.10
2023-07-04T11:24:38.056Z,6.90
2023-07-04T11:27:20.242Z,9.30
2023-07-04T11:30:01.920Z,7.40
2023-07-04T11:32:55.616Z,7.60
2023-07-04T11:35:25.066Z,6.10
2023-07-04T11:37:53.697Z,13.70
2023-07-04T11:40:27.045Z,7.00
2023-07-04T11:43:01.474Z,6.50
2023-07-04T11:45:31.449Z,9.70
2023-07-04T11:48:11.665Z,9.00
2023-07-04T11:50:53.381Z,6.70
2023-07-04T11:53:34.337Z,8.60
2023-07-04T11:56:18.183Z,7.20
2023-07-04T11:58:48.441Z,10.00
2023-07-04T12:01:18.585Z,12.30
2023-07-04T12:03:55.915Z,7.50
2023-07-04T12:06:57.078Z,6.50
2023-07-04T12:09:41.690Z,6.40
2023-07-04T12:12:19.367Z,6.30
2023-07-04T12:14:50.581Z,8.30
2023-07-04T12:17:20.177Z,11.10
2023-07-04T12:19:56.310Z,7.10
2023-07-04T12:22:26.063Z,6.40
2023-07-04T12:24:54.393Z,12.40
2023-07-04T12:32:29.955Z,7.70
2023-07-04T12:35:11.458Z,9.00
2023-07-04T12:37:46.111Z,7.70
2023-07-04T12:40:18.913Z,11.50
2023-07-04T12:42:48.508Z,13.10
2023-07-04T12:45:24.460Z,6.70
2023-07-04T12:50:31.523Z,7.30
2023-07-04T12:53:00.369Z,8.30
2023-07-04T12:55:34.828Z,6.60
2023-07-04T12:58:05.935Z,6.90
2023-07-04T13:00:57.103Z,7.70
2023-07-04T13:03:28.429Z,7.10
2023-07-04T13:05:57.763Z,6.40
2023-07-04T13:08:29.023Z,7.20
2023-07-04T13:11:00.084Z,9.00
2023-07-04T13:13:46.289Z,8.10
2023-07-04T13:16:14.546Z,7.80
2023-07-04T13:18:45.850Z,6.80
2023-07-04T13:21:48.884Z,7.00
2023-07-04T13:27:16.473Z,6.20
2023-07-04T13:30:22.758Z,7.10
2023-07-04T13:35:27.339Z,6.70
2023-07-04T13:39:49.852Z,6.90
2023-07-04T13:40:45.421Z,6.90
2023-07-04T13:45:48.665Z,8.10
2023-07-04T13:48:17.160Z,7.70
2023-07-04T13:55:44.799Z,8.20
2023-07-04T13:58:13.211Z,8.10
2023-07-04T14:06:07.117Z,7.10
2023-07-04T14:08:37.595Z,8.70
2023-07-04T14:11:11.840Z,6.80
2023-07-04T14:13:40.509Z,6.50
2023-07-04T14:21:16.623Z,7.20
2023-07-04T14:23:45.320Z,7.50
2023-07-04T14:26:21.843Z,7.20
2023-07-04T14:28:53.193Z,6.10
2023-07-04T14:31:22.259Z,6.20
2023-07-04T14:33:51.689Z,6.70
2023-07-04T14:36:20.068Z,6.30
2023-07-04T14:38:48.651Z,6.40
2023-07-04T14:43:48.508Z,7.40
2023-07-04T14:46:16.851Z,6.50
2023-07-04T14:51:14.857Z,7.10
2023-07-04T14:53:44.218Z,6.80
2023-07-04T14:56:16.388Z,7.80
2023-07-04T14:58:45.152Z,6.70
2023-07-04T15:01:18.913Z,6.30
2023-07-04T15:03:47.662Z,6.30
2023-07-04T15:06:17.377Z,8.80
2023-07-04T15:08:46.314Z,8.80
2023-07-04T15:11:14.748Z,7.10
2023-07-04T15:16:11.261Z,6.00
2023-07-04T15:21:09.696Z,5.30
2023-07-04T15:23:38.201Z,6.50
2023-07-04T15:28:56.201Z,4.80
2023-07-04T15:31:26.087Z,6.00
2023-07-04T15:33:54.608Z,4.60
2023-07-04T15:36:23.107Z,6.20
2023-07-04T15:38:51.720Z,5.40
2023-07-04T15:43:51.184Z,6.70
2023-07-04T15:46:20.615Z,4.90
2023-07-04T15:48:48.975Z,4.70
2023-07-04T15:53:48.596Z,5.90
2023-07-04T15:56:20.755Z,6.80
2023-07-04T15:58:48.973Z,5.10
2023-07-04T16:01:17.479Z,5.00
2023-07-04T16:03:46.510Z,5.30
2023-07-04T16:06:15.422Z,6.50
2023-07-04T16:08:43.906Z,4.30
2023-07-04T16:11:14.700Z,4.90
2023-07-04T16:13:42.941Z,5.30
2023-07-04T16:16:12.980Z,4.70
2023-07-04T16:18:41.234Z,5.40
2023-07-04T16:21:11.802Z,4.30
2023-07-04T16:23:41.871Z,5.40
2023-07-04T16:26:12.188Z,5.70
2023-07-04T16:28:40.525Z,5.50
2023-07-04T16:31:10.396Z,5.20
2023-07-04T16:33:40.243Z,5.40
2023-07-04T16:36:09.034Z,5.20
2023-07-04T16:38:37.340Z,5.30
2023-07-04T16:41:12.952Z,5.00
2023-07-04T16:43:41.822Z,5.60
2023-07-04T16:46:10.221Z,5.50
2023-07-04T16:48:38.613Z,6.90
2023-07-04T16:51:07.657Z,6.00
2023-07-04T16:53:36.125Z,5.70
2023-07-04T16:56:05.363Z,5.30
2023-07-04T16:58:33.597Z,5.60
2023-07-04T17:01:03.527Z,5.20
2023-07-04T17:03:33.325Z,4.70
2023-07-04T17:06:07.400Z,5.80
2023-07-04T17:08:38.241Z,5.00
2023-07-04T17:11:09.410Z,4.90
2023-07-04T17:13:40.256Z,5.40
2023-07-04T17:16:10.476Z,6.20
2023-07-04T17:18:40.582Z,5.50
2023-07-04T17:21:09.770Z,6.70
2023-07-04T17:23:38.416Z,7.00
2023-07-04T17:26:07.811Z,5.70
2023-07-04T17:28:36.200Z,6.50
2023-07-04T17:31:07.865Z,6.90
2023-07-04T17:33:36.733Z,7.30
2023-07-04T17:36:04.991Z,6.80
2023-07-04T17:41:06.260Z,7.10
2023-07-04T17:43:34.906Z,7.40
2023-07-04T17:46:06.598Z,7.30
2023-07-04T17:48:34.797Z,6.90
2023-07-04T17:51:11.220Z,6.70
2023-07-04T17:53:40.196Z,6.10
2023-07-04T17:56:14.285Z,6.60
2023-07-04T17:58:42.849Z,6.00
2023-07-04T18:01:14.688Z,6.70
2023-07-04T18:03:46.440Z,6.60
2023-07-04T18:06:17.101Z,7.40
2023-07-04T18:08:45.799Z,8.30
2023-07-04T18:11:26.377Z,7.80
2023-07-04T18:13:59.046Z,7.50
2023-07-04T18:16:28.257Z,7.10
2023-07-04T18:18:57.504Z,6.80
2023-07-04T18:21:26.630Z,8.00
2023-07-04T18:24:02.658Z,7.70
2023-07-04T18:26:33.597Z,7.60
2023-07-04T18:29:04.043Z,7.60
2023-07-04T18:31:32.373Z,6.70
2023-07-04T18:36:32.843Z,7.70
2023-07-04T18:39:01.857Z,8.90
2023-07-04T18:41:36.571Z,7.00
2023-07-04T18:44:07.080Z,7.40
2023-07-04T18:46:37.081Z,8.70
2023-07-04T18:49:06.662Z,8.20
2023-07-04T18:51:39.690Z,8.30
2023-07-04T18:54:12.001Z,7.70
2023-07-04T18:56:44.241Z,7.50
2023-07-04T18:59:14.902Z,8.00
2023-07-04T19:01:43.829Z,7.40
2023-07-04T19:04:13.084Z,7.50
2023-07-04T19:06:41.458Z,7.30
2023-07-04T19:09:11.474Z,8.00
2023-07-04T19:11:41.987Z,9.00
2023-07-04T19:14:22.048Z,8.90
2023-07-04T19:16:55.998Z,9.50
2023-07-04T19:19:29.678Z,10.00
2023-07-04T19:22:00.754Z,9.70
2023-07-04T19:24:30.344Z,9.80
2023-07-04T19:26:58.827Z,13.60
2023-07-04T19:32:00.056Z,8.50
2023-07-04T19:34:29.125Z,8.30
2023-07-04T19:36:58.647Z,8.20
2023-07-04T19:39:32.010Z,8.40
2023-07-04T19:42:02.418Z,9.70
2023-07-04T19:44:30.972Z,9.00
2023-07-04T19:46:59.142Z,8.80
2023-07-04T19:49:27.404Z,9.50
2023-07-04T19:51:55.526Z,10.20
2023-07-04T19:54:24.252Z,8.40
2023-07-04T19:56:57.311Z,8.10
2023-07-04T19:59:26.430Z,7.20
2023-07-04T20:01:54.962Z,7.30
2023-07-04T20:04:23.470Z,6.50
2023-07-04T20:06:51.589Z,6.40
2023-07-04T20:09:19.840Z,6.10
2023-07-04T20:11:48.146Z,6.70
2023-07-04T20:14:16.378Z,7.20
2023-07-04T20:16:44.789Z,7.00
2023-07-04T20:19:13.224Z,5.40
2023-07-04T20:21:41.447Z,6.10
2023-07-04T20:24:09.625Z,6.00
2023-07-04T20:26:37.874Z,5.50
2023-07-04T20:29:06.028Z,6.00
2023-07-04T20:31:34.181Z,5.10
2023-07-04T20:34:03.706Z,5.00
2023-07-04T20:36:32.095Z,5.30
2023-07-04T20:39:00.424Z,5.90
2023-07-04T20:41:29.222Z,5.10
2023-07-04T20:46:25.620Z,4.70
2023-07-04T20:48:54.018Z,4.60
2023-07-04T20:51:24.413Z,4.40
2023-07-04T20:53:52.708Z,4.90
2023-07-04T20:56:20.914Z,3.80
2023-07-04T20:58:49.223Z,3.90
2023-07-04T21:01:17.526Z,4.80
2023-07-04T21:03:45.869Z,3.90
2023-07-04T21:06:14.020Z,4.10
2023-07-04T21:08:42.746Z,3.60
2023-07-04T21:11:11.660Z,4.20
2023-07-04T21:13:39.920Z,4.50
2023-07-04T21:16:10.850Z,3.80
2023-07-04T21:18:39.711Z,4.30
2023-07-04T21:21:08.927Z,4.00
2023-07-04T21:23:37.993Z,4.70
2023-07-04T21:26:07.640Z,4.00
2023-07-04T21:28:37.149Z,3.60
2023-07-04T21:31:08.523Z,4.40
2023-07-04T21:33:40.119Z,4.30
2023-07-04T21:36:09.945Z,3.70
2023-07-04T21:38:39.665Z,4.10
2023-07-04T21:41:11.017Z,3.80
2023-07-04T21:43:39.174Z,3.40
2023-07-04T21:46:09.434Z,3.50
2023-07-04T21:48:38.163Z,3.40
2023-07-04T21:51:08.469Z,3.20
2023-07-04T21:53:36.678Z,3.80
2023-07-04T21:56:06.148Z,3.80
2023-07-04T21:58:34.773Z,3.70
2023-07-04T22:01:05.206Z,3.50
2023-07-04T22:03:36.425Z,4.20
2023-07-04T22:06:07.268Z,3.60
2023-07-04T22:08:38.824Z,3.70
2023-07-04T22:11:12.199Z,3.40
2023-07-04T22:13:43.516Z,3.10
2023-07-04T22:16:15.290Z,3.40
2023-07-04T22:18:43.478Z,3.00
2023-07-04T22:21:13.156Z,3.10
2023-07-04T22:23:42.276Z,3.30
2023-07-04T22:26:12.716Z,3.50
2023-07-04T22:28:42.289Z,3.20
2023-07-04T22:31:13.723Z,3.30
2023-07-04T22:34:06.113Z,3.50
2023-07-04T22:36:35.685Z,3.20
2023-07-04T22:39:05.273Z,3.30
2023-07-04T22:41:33.889Z,3.10
2023-07-04T22:44:02.136Z,3.30
2023-07-04T22:46:30.867Z,3.10
2023-07-04T22:48:59.705Z,3.30
2023-07-04T22:51:28.250Z,3.60
2023-07-04T22:53:56.411Z,3.20
2023-07-04T22:56:25.531Z,3.30
2023-07-04T22:58:53.712Z,3.60
2023-07-04T23:01:23.873Z,3.40
2023-07-04T23:03:52.329Z,3.50
2023-07-04T23:06:21.790Z,3.40
2023-07-04T23:08:49.999Z,3.20
2023-07-04T23:11:18.604Z,3.10
2023-07-04T23:13:47.274Z,3.30
2023-07-04T23:18:48.207Z,3.00
2023-07-04T23:21:18.001Z,3.40
2023-07-04T23:23:48.375Z,3.40
2023-07-04T23:26:27.791Z,3.30
2023-07-04T23:28:55.970Z,3.50
2023-07-04T23:31:24.346Z,3.50
2023-07-04T23:33:52.695Z,3.80
2023-07-04T23:36:21.690Z,3.70
2023-07-04T23:38:51.665Z,3.90
2023-07-04T23:41:20.960Z,3.70
2023-07-04T23:43:49.341Z,4.20
2023-07-04T23:46:21.972Z,3.40
2023-07-04T23:48:50.525Z,3.90
2023-07-04T23:51:18.812Z,3.00
2023-07-04T23:53:47.209Z,3.10
2023-07-04T23:56:19.703Z,3.70
2023-07-04T23:58:47.997Z,3.50
